sensor_id;sensor_type;location;lat;lon;timestamp;P1;durP1;ratioP1;P2;durP2;ratioP2
54241;SDS011;40156;51.080;17.082;2022-12-29T00:02:00;4.82;;;3.53;;
54241;SDS011;40156;51.080;17.082;2022-12-29T00:04:27;2.97;;;1.80;;
54241;SDS011;40156;51.080;17.082;2022-12-29T00:06:55;3.90;;;1.75;;
54241;SDS011;40156;51.080;17.082;2022-12-29T00:09:22;4.13;;;1.95;;
54241;SDS011;40156;51.080;17.082;2022-12-29T00:11:49;4.32;;;1.75;;
54241;SDS011;40156;51.080;17.082;2022-12-29T00:14:17;5.43;;;2.08;;
54241;SDS011;40156;51.080;17.082;2022-12-29T00:16:52;3.70;;;1.85;;
54241;SDS011;40156;51.080;17.082;2022-12-29T00:19:19;3.78;;;1.88;;
54241;SDS011;40156;51.080;17.082;2022-12-29T00:21:47;2.53;;;1.20;;
54241;SDS011;40156;51.080;17.082;2022-12-29T00:24:18;3.35;;;2.00;;
54241;SDS011;40156;51.080;17.082;2022-12-29T00:26:53;5.53;;;1.42;;
54241;SDS011;40156;51.080;17.082;2022-12-29T00:29:20;3.63;;;2.05;;
54241;SDS011;40156;51.080;17.082;2022-12-29T00:31:48;4.47;;;2.10;;
54241;SDS011;40156;51.080;17.082;2022-12-29T00:34:28;4.95;;;1.55;;
54241;SDS011;40156;51.080;17.082;2022-12-29T00:36:56;4.00;;;1.98;;
54241;SDS011;40156;51.080;17.082;2022-12-29T00:39:23;2.97;;;1.63;;
54241;SDS011;40156;51.080;17.082;2022-12-29T00:41:51;2.50;;;1.90;;
54241;SDS011;40156;51.080;17.082;2022-12-29T00:44:18;2.72;;;1.75;;
54241;SDS011;40156;51.080;17.082;2022-12-29T00:46:46;3.95;;;1.60;;
54241;SDS011;40156;51.080;17.082;2022-12-29T00:49:14;4.88;;;2.00;;
54241;SDS011;40156;51.080;17.082;2022-12-29T00:51:41;2.65;;;1.63;;
54241;SDS011;40156;51.080;17.082;2022-12-29T00:54:09;5.15;;;1.90;;
54241;SDS011;40156;51.080;17.082;2022-12-29T00:56:37;5.20;;;2.03;;
54241;SDS011;40156;51.080;17.082;2022-12-29T00:59:05;4.32;;;2.00;;
54241;SDS011;40156;51.080;17.082;2022-12-29T01:01:33;3.55;;;1.75;;
54241;SDS011;40156;51.080;17.082;2022-12-29T01:04:02;3.75;;;2.17;;
54241;SDS011;40156;51.080;17.082;2022-12-29T01:06:31;3.47;;;2.10;;
54241;SDS011;40156;51.080;17.082;2022-12-29T01:08:59;3.63;;;1.48;;
54241;SDS011;40156;51.080;17.082;2022-12-29T01:11:27;4.55;;;1.92;;
54241;SDS011;40156;51.080;17.082;2022-12-29T01:13:55;3.58;;;1.80;;
54241;SDS011;40156;51.080;17.082;2022-12-29T01:16:23;3.60;;;1.77;;
54241;SDS011;40156;51.080;17.082;2022-12-29T01:18:51;3.13;;;1.90;;
54241;SDS011;40156;51.080;17.082;2022-12-29T01:24:50;3.40;;;1.88;;
54241;SDS011;40156;51.080;17.082;2022-12-29T01:27:18;4.47;;;2.05;;
54241;SDS011;40156;51.080;17.082;2022-12-29T01:29:45;3.95;;;1.52;;
54241;SDS011;40156;51.080;17.082;2022-12-29T01:32:13;3.58;;;1.85;;
54241;SDS011;40156;51.080;17.082;2022-12-29T01:34:40;3.25;;;1.83;;
54241;SDS011;40156;51.080;17.082;2022-12-29T01:37:26;9.48;;;1.73;;
54241;SDS011;40156;51.080;17.082;2022-12-29T01:48:56;4.55;;;1.20;;
54241;SDS011;40156;51.080;17.082;2022-12-29T01:51:25;3.70;;;1.95;;
54241;SDS011;40156;51.080;17.082;2022-12-29T01:53:53;3.38;;;1.50;;
54241;SDS011;40156;51.080;17.082;2022-12-29T01:56:23;3.13;;;1.33;;
54241;SDS011;40156;51.080;17.082;2022-12-29T01:58:53;5.13;;;1.50;;
54241;SDS011;40156;51.080;17.082;2022-12-29T02:01:22;3.17;;;1.60;;
54241;SDS011;40156;51.080;17.082;2022-12-29T02:03:49;3.33;;;1.48;;
54241;SDS011;40156;51.080;17.082;2022-12-29T02:06:22;3.38;;;1.63;;
54241;SDS011;40156;51.080;17.082;2022-12-29T02:08:50;4.78;;;1.45;;
54241;SDS011;40156;51.080;17.082;2022-12-29T02:11:18;2.88;;;1.33;;
54241;SDS011;40156;51.080;17.082;2022-12-29T02:13:46;3.88;;;1.45;;
54241;SDS011;40156;51.080;17.082;2022-12-29T02:22:34;2.83;;;1.40;;
54241;SDS011;40156;51.080;17.082;2022-12-29T02:38:51;2.47;;;1.50;;
54241;SDS011;40156;51.080;17.082;2022-12-29T02:41:21;5.65;;;1.30;;
54241;SDS011;40156;51.080;17.082;2022-12-29T02:51:44;2.63;;;1.73;;
54241;SDS011;40156;51.080;17.082;2022-12-29T02:54:16;3.27;;;1.27;;
54241;SDS011;40156;51.080;17.082;2022-12-29T02:56:44;3.08;;;1.48;;
54241;SDS011;40156;51.080;17.082;2022-12-29T02:59:12;5.38;;;1.50;;
54241;SDS011;40156;51.080;17.082;2022-12-29T03:09:26;6.32;;;1.60;;
54241;SDS011;40156;51.080;17.082;2022-12-29T03:15:03;3.65;;;1.50;;
54241;SDS011;40156;51.080;17.082;2022-12-29T03:24:29;2.70;;;1.42;;
54241;SDS011;40156;51.080;17.082;2022-12-29T03:26:59;3.90;;;1.25;;
54241;SDS011;40156;51.080;17.082;2022-12-29T03:29:29;2.03;;;1.50;;
54241;SDS011;40156;51.080;17.082;2022-12-29T03:31:58;2.83;;;1.50;;
54241;SDS011;40156;51.080;17.082;2022-12-29T03:34:26;3.75;;;1.75;;
54241;SDS011;40156;51.080;17.082;2022-12-29T03:36:57;2.65;;;1.50;;
54241;SDS011;40156;51.080;17.082;2022-12-29T03:39:26;3.38;;;1.80;;
54241;SDS011;40156;51.080;17.082;2022-12-29T03:41:58;2.97;;;1.27;;
54241;SDS011;40156;51.080;17.082;2022-12-29T03:44:37;5.00;;;2.22;;
54241;SDS011;40156;51.080;17.082;2022-12-29T03:47:05;2.92;;;1.38;;
54241;SDS011;40156;51.080;17.082;2022-12-29T03:49:33;4.53;;;1.60;;
54241;SDS011;40156;51.080;17.082;2022-12-29T03:52:01;2.95;;;1.63;;
54241;SDS011;40156;51.080;17.082;2022-12-29T03:54:29;2.20;;;1.60;;
54241;SDS011;40156;51.080;17.082;2022-12-29T03:56:57;4.50;;;1.50;;
54241;SDS011;40156;51.080;17.082;2022-12-29T03:59:25;2.90;;;1.48;;
54241;SDS011;40156;51.080;17.082;2022-12-29T04:01:53;2.90;;;1.60;;
54241;SDS011;40156;51.080;17.082;2022-12-29T04:04:20;3.65;;;1.30;;
54241;SDS011;40156;51.080;17.082;2022-12-29T04:06:48;4.00;;;1.60;;
54241;SDS011;40156;51.080;17.082;2022-12-29T04:09:15;3.00;;;1.60;;
54241;SDS011;40156;51.080;17.082;2022-12-29T04:11:44;5.18;;;1.92;;
54241;SDS011;40156;51.080;17.082;2022-12-29T04:14:11;4.38;;;1.75;;
54241;SDS011;40156;51.080;17.082;2022-12-29T04:16:38;2.63;;;1.50;;
54241;SDS011;40156;51.080;17.082;2022-12-29T04:19:06;3.85;;;1.55;;
54241;SDS011;40156;51.080;17.082;2022-12-29T04:21:34;2.85;;;1.42;;
54241;SDS011;40156;51.080;17.082;2022-12-29T04:24:01;4.18;;;1.80;;
54241;SDS011;40156;51.080;17.082;2022-12-29T04:26:29;2.15;;;1.50;;
54241;SDS011;40156;51.080;17.082;2022-12-29T04:28:57;2.60;;;1.58;;
54241;SDS011;40156;51.080;17.082;2022-12-29T04:31:24;1.90;;;1.30;;
54241;SDS011;40156;51.080;17.082;2022-12-29T04:33:52;3.13;;;1.35;;
54241;SDS011;40156;51.080;17.082;2022-12-29T04:36:19;2.38;;;1.52;;
54241;SDS011;40156;51.080;17.082;2022-12-29T04:38:54;3.17;;;1.70;;
54241;SDS011;40156;51.080;17.082;2022-12-29T04:41:21;2.88;;;1.30;;
54241;SDS011;40156;51.080;17.082;2022-12-29T04:43:49;3.53;;;1.50;;
54241;SDS011;40156;51.080;17.082;2022-12-29T04:46:16;4.07;;;1.50;;
54241;SDS011;40156;51.080;17.082;2022-12-29T04:48:44;3.42;;;1.70;;
54241;SDS011;40156;51.080;17.082;2022-12-29T04:51:12;2.13;;;1.30;;
54241;SDS011;40156;51.080;17.082;2022-12-29T04:53:39;4.32;;;1.85;;
54241;SDS011;40156;51.080;17.082;2022-12-29T04:56:07;2.65;;;1.23;;
54241;SDS011;40156;51.080;17.082;2022-12-29T04:58:35;4.55;;;1.73;;
54241;SDS011;40156;51.080;17.082;2022-12-29T05:01:03;3.88;;;1.80;;
54241;SDS011;40156;51.080;17.082;2022-12-29T05:03:30;3.38;;;1.80;;
54241;SDS011;40156;51.080;17.082;2022-12-29T05:05:58;3.80;;;1.67;;
54241;SDS011;40156;51.080;17.082;2022-12-29T05:08:25;2.83;;;1.70;;
54241;SDS011;40156;51.080;17.082;2022-12-29T05:10:55;3.88;;;1.33;;
54241;SDS011;40156;51.080;17.082;2022-12-29T05:13:22;4.43;;;1.70;;
54241;SDS011;40156;51.080;17.082;2022-12-29T05:15:53;3.65;;;1.67;;
54241;SDS011;40156;51.080;17.082;2022-12-29T05:18:20;3.67;;;1.90;;
54241;SDS011;40156;51.080;17.082;2022-12-29T05:20:48;3.17;;;1.80;;
54241;SDS011;40156;51.080;17.082;2022-12-29T05:23:15;4.07;;;2.28;;
54241;SDS011;40156;51.080;17.082;2022-12-29T05:25:45;3.92;;;2.00;;
54241;SDS011;40156;51.080;17.082;2022-12-29T05:28:12;5.10;;;1.58;;
54241;SDS011;40156;51.080;17.082;2022-12-29T05:30:40;3.53;;;1.45;;
54241;SDS011;40156;51.080;17.082;2022-12-29T05:33:08;6.22;;;1.60;;
54241;SDS011;40156;51.080;17.082;2022-12-29T05:35:35;4.50;;;1.50;;
54241;SDS011;40156;51.080;17.082;2022-12-29T05:38:03;4.65;;;1.70;;
54241;SDS011;40156;51.080;17.082;2022-12-29T05:40:30;1.27;;;1.10;;
54241;SDS011;40156;51.080;17.082;2022-12-29T05:42:59;2.83;;;1.60;;
54241;SDS011;40156;51.080;17.082;2022-12-29T05:45:26;3.08;;;1.60;;
54241;SDS011;40156;51.080;17.082;2022-12-29T05:47:54;4.78;;;1.75;;
54241;SDS011;40156;51.080;17.082;2022-12-29T05:50:21;2.72;;;1.80;;
54241;SDS011;40156;51.080;17.082;2022-12-29T05:52:49;3.70;;;1.90;;
54241;SDS011;40156;51.080;17.082;2022-12-29T05:55:16;3.97;;;1.98;;
54241;SDS011;40156;51.080;17.082;2022-12-29T05:57:44;3.33;;;2.10;;
54241;SDS011;40156;51.080;17.082;2022-12-29T06:00:12;4.22;;;1.67;;
54241;SDS011;40156;51.080;17.082;2022-12-29T06:02:40;4.85;;;1.90;;
54241;SDS011;40156;51.080;17.082;2022-12-29T06:05:08;2.78;;;1.65;;
54241;SDS011;40156;51.080;17.082;2022-12-29T06:07:35;4.03;;;2.10;;
54241;SDS011;40156;51.080;17.082;2022-12-29T06:10:04;5.30;;;2.10;;
54241;SDS011;40156;51.080;17.082;2022-12-29T06:12:31;5.45;;;1.85;;
54241;SDS011;40156;51.080;17.082;2022-12-29T06:14:59;4.63;;;2.20;;
54241;SDS011;40156;51.080;17.082;2022-12-29T06:17:26;3.10;;;1.90;;
54241;SDS011;40156;51.080;17.082;2022-12-29T06:19:54;6.38;;;2.15;;
54241;SDS011;40156;51.080;17.082;2022-12-29T06:22:21;3.22;;;2.10;;
54241;SDS011;40156;51.080;17.082;2022-12-29T06:24:49;3.60;;;2.08;;
54241;SDS011;40156;51.080;17.082;2022-12-29T06:27:16;3.00;;;1.80;;
54241;SDS011;40156;51.080;17.082;2022-12-29T06:29:44;3.05;;;2.05;;
54241;SDS011;40156;51.080;17.082;2022-12-29T06:32:11;3.05;;;1.75;;
54241;SDS011;40156;51.080;17.082;2022-12-29T06:34:39;4.50;;;2.13;;
54241;SDS011;40156;51.080;17.082;2022-12-29T06:37:06;3.08;;;2.20;;
54241;SDS011;40156;51.080;17.082;2022-12-29T06:39:34;4.53;;;2.35;;
54241;SDS011;40156;51.080;17.082;2022-12-29T06:42:02;3.90;;;2.03;;
54241;SDS011;40156;51.080;17.082;2022-12-29T06:44:29;4.55;;;2.15;;
54241;SDS011;40156;51.080;17.082;2022-12-29T06:46:57;4.45;;;2.45;;
54241;SDS011;40156;51.080;17.082;2022-12-29T06:49:24;4.28;;;1.98;;
54241;SDS011;40156;51.080;17.082;2022-12-29T06:51:52;6.53;;;2.25;;
54241;SDS011;40156;51.080;17.082;2022-12-29T06:54:19;3.55;;;2.13;;
54241;SDS011;40156;51.080;17.082;2022-12-29T06:56:47;4.00;;;2.38;;
54241;SDS011;40156;51.080;17.082;2022-12-29T06:59:14;5.20;;;2.42;;
54241;SDS011;40156;51.080;17.082;2022-12-29T07:01:45;5.43;;;2.95;;
54241;SDS011;40156;51.080;17.082;2022-12-29T07:04:13;3.60;;;2.25;;
54241;SDS011;40156;51.080;17.082;2022-12-29T07:06:41;5.00;;;2.33;;
54241;SDS011;40156;51.080;17.082;2022-12-29T07:09:08;6.07;;;2.78;;
54241;SDS011;40156;51.080;17.082;2022-12-29T07:11:36;6.95;;;2.60;;
54241;SDS011;40156;51.080;17.082;2022-12-29T07:14:03;5.70;;;2.53;;
54241;SDS011;40156;51.080;17.082;2022-12-29T07:16:31;3.10;;;2.15;;
54241;SDS011;40156;51.080;17.082;2022-12-29T07:18:59;3.92;;;2.20;;
54241;SDS011;40156;51.080;17.082;2022-12-29T07:21:26;4.38;;;2.40;;
54241;SDS011;40156;51.080;17.082;2022-12-29T07:23:54;6.72;;;2.53;;
54241;SDS011;40156;51.080;17.082;2022-12-29T07:26:21;5.15;;;2.65;;
54241;SDS011;40156;51.080;17.082;2022-12-29T07:28:49;4.45;;;2.33;;
54241;SDS011;40156;51.080;17.082;2022-12-29T07:31:20;4.40;;;2.22;;
54241;SDS011;40156;51.080;17.082;2022-12-29T07:33:49;4.38;;;2.50;;
54241;SDS011;40156;51.080;17.082;2022-12-29T07:36:16;4.93;;;2.10;;
54241;SDS011;40156;51.080;17.082;2022-12-29T07:38:44;5.57;;;2.28;;
54241;SDS011;40156;51.080;17.082;2022-12-29T07:41:11;6.30;;;2.92;;
54241;SDS011;40156;51.080;17.082;2022-12-29T07:43:39;4.50;;;2.38;;
54241;SDS011;40156;51.080;17.082;2022-12-29T07:49:29;12.43;;;6.55;;
54241;SDS011;40156;51.080;17.082;2022-12-29T07:51:56;4.50;;;2.47;;
54241;SDS011;40156;51.080;17.082;2022-12-29T07:54:24;5.25;;;2.65;;
54241;SDS011;40156;51.080;17.082;2022-12-29T07:56:51;5.18;;;2.50;;
54241;SDS011;40156;51.080;17.082;2022-12-29T07:59:19;6.38;;;2.30;;
54241;SDS011;40156;51.080;17.082;2022-12-29T08:01:46;5.72;;;2.72;;
54241;SDS011;40156;51.080;17.082;2022-12-29T08:04:14;5.88;;;2.40;;
54241;SDS011;40156;51.080;17.082;2022-12-29T08:06:42;5.10;;;2.92;;
54241;SDS011;40156;51.080;17.082;2022-12-29T08:09:09;6.95;;;2.97;;
54241;SDS011;40156;51.080;17.082;2022-12-29T08:11:44;6.93;;;2.55;;
54241;SDS011;40156;51.080;17.082;2022-12-29T08:14:12;7.68;;;2.92;;
54241;SDS011;40156;51.080;17.082;2022-12-29T08:16:39;4.82;;;2.67;;
54241;SDS011;40156;51.080;17.082;2022-12-29T08:19:07;7.05;;;2.80;;
54241;SDS011;40156;51.080;17.082;2022-12-29T08:21:36;4.10;;;2.30;;
54241;SDS011;40156;51.080;17.082;2022-12-29T08:24:04;4.93;;;2.60;;
54241;SDS011;40156;51.080;17.082;2022-12-29T08:26:32;6.13;;;2.20;;
54241;SDS011;40156;51.080;17.082;2022-12-29T08:29:00;5.22;;;2.67;;
54241;SDS011;40156;51.080;17.082;2022-12-29T08:31:27;5.75;;;3.25;;
54241;SDS011;40156;51.080;17.082;2022-12-29T08:33:55;8.13;;;2.53;;
54241;SDS011;40156;51.080;17.082;2022-12-29T08:36:23;5.28;;;2.72;;
54241;SDS011;40156;51.080;17.082;2022-12-29T08:38:50;5.30;;;2.65;;
54241;SDS011;40156;51.080;17.082;2022-12-29T08:41:18;8.25;;;3.83;;
54241;SDS011;40156;51.080;17.082;2022-12-29T08:43:46;6.20;;;2.65;;
54241;SDS011;40156;51.080;17.082;2022-12-29T08:46:13;7.25;;;3.20;;
54241;SDS011;40156;51.080;17.082;2022-12-29T08:48:41;4.80;;;2.60;;
54241;SDS011;40156;51.080;17.082;2022-12-29T08:51:09;4.57;;;2.72;;
54241;SDS011;40156;51.080;17.082;2022-12-29T08:53:36;7.03;;;3.40;;
54241;SDS011;40156;51.080;17.082;2022-12-29T08:56:04;5.68;;;2.88;;
54241;SDS011;40156;51.080;17.082;2022-12-29T08:58:32;6.63;;;3.25;;
54241;SDS011;40156;51.080;17.082;2022-12-29T09:01:00;7.75;;;3.45;;
54241;SDS011;40156;51.080;17.082;2022-12-29T09:03:27;6.20;;;3.00;;
54241;SDS011;40156;51.080;17.082;2022-12-29T09:06:15;5.38;;;2.72;;
54241;SDS011;40156;51.080;17.082;2022-12-29T09:08:43;5.50;;;3.17;;
54241;SDS011;40156;51.080;17.082;2022-12-29T09:11:21;6.43;;;2.90;;
54241;SDS011;40156;51.080;17.082;2022-12-29T09:13:48;5.38;;;2.72;;
54241;SDS011;40156;51.080;17.082;2022-12-29T09:16:16;4.78;;;3.20;;
54241;SDS011;40156;51.080;17.082;2022-12-29T09:18:44;4.93;;;2.83;;
54241;SDS011;40156;51.080;17.082;2022-12-29T09:21:12;6.00;;;2.83;;
54241;SDS011;40156;51.080;17.082;2022-12-29T09:23:40;6.88;;;3.30;;
54241;SDS011;40156;51.080;17.082;2022-12-29T09:26:08;7.88;;;3.30;;
54241;SDS011;40156;51.080;17.082;2022-12-29T09:28:35;7.45;;;3.55;;
54241;SDS011;40156;51.080;17.082;2022-12-29T09:31:03;6.70;;;3.15;;
54241;SDS011;40156;51.080;17.082;2022-12-29T09:33:31;6.72;;;3.22;;
54241;SDS011;40156;51.080;17.082;2022-12-29T09:35:58;5.32;;;2.72;;
54241;SDS011;40156;51.080;17.082;2022-12-29T09:38:26;8.50;;;2.80;;
54241;SDS011;40156;51.080;17.082;2022-12-29T09:46:18;5.50;;;3.30;;
54241;SDS011;40156;51.080;17.082;2022-12-29T09:48:51;7.15;;;3.33;;
54241;SDS011;40156;51.080;17.082;2022-12-29T09:51:21;9.23;;;3.25;;
54241;SDS011;40156;51.080;17.082;2022-12-29T09:53:52;7.70;;;3.05;;
54241;SDS011;40156;51.080;17.082;2022-12-29T09:56:21;6.65;;;3.13;;
54241;SDS011;40156;51.080;17.082;2022-12-29T09:59:00;4.80;;;2.83;;
54241;SDS011;40156;51.080;17.082;2022-12-29T10:01:46;9.15;;;3.33;;
54241;SDS011;40156;51.080;17.082;2022-12-29T10:04:19;6.03;;;2.88;;
54241;SDS011;40156;51.080;17.082;2022-12-29T10:06:51;5.82;;;3.00;;
54241;SDS011;40156;51.080;17.082;2022-12-29T10:25:12;6.63;;;2.85;;
54241;SDS011;40156;51.080;17.082;2022-12-29T10:27:42;4.15;;;2.17;;
54241;SDS011;40156;51.080;17.082;2022-12-29T10:30:11;6.13;;;2.13;;
54241;SDS011;40156;51.080;17.082;2022-12-29T10:32:47;6.57;;;2.67;;
54241;SDS011;40156;51.080;17.082;2022-12-29T10:37:58;6.30;;;2.00;;
54241;SDS011;40156;51.080;17.082;2022-12-29T10:40:31;2.90;;;1.73;;
54241;SDS011;40156;51.080;17.082;2022-12-29T10:43:00;6.68;;;3.72;;
54241;SDS011;40156;51.080;17.082;2022-12-29T10:45:29;3.78;;;1.73;;
54241;SDS011;40156;51.080;17.082;2022-12-29T10:48:00;3.90;;;1.98;;
54241;SDS011;40156;51.080;17.082;2022-12-29T10:50:29;8.75;;;2.80;;
54241;SDS011;40156;51.080;17.082;2022-12-29T10:52:58;7.65;;;2.05;;
54241;SDS011;40156;51.080;17.082;2022-12-29T10:55:36;6.65;;;2.30;;
54241;SDS011;40156;51.080;17.082;2022-12-29T10:58:07;3.58;;;1.80;;
54241;SDS011;40156;51.080;17.082;2022-12-29T11:00:37;4.88;;;2.30;;
54241;SDS011;40156;51.080;17.082;2022-12-29T11:06:22;4.90;;;2.25;;
54241;SDS011;40156;51.080;17.082;2022-12-29T11:08:37;4.88;;;1.75;;
54241;SDS011;40156;51.080;17.082;2022-12-29T11:11:06;4.18;;;1.52;;
54241;SDS011;40156;51.080;17.082;2022-12-29T11:13:57;5.35;;;1.98;;
54241;SDS011;40156;51.080;17.082;2022-12-29T11:16:32;3.88;;;1.67;;
54241;SDS011;40156;51.080;17.082;2022-12-29T11:19:01;3.83;;;1.80;;
54241;SDS011;40156;51.080;17.082;2022-12-29T11:21:33;3.45;;;1.80;;
54241;SDS011;40156;51.080;17.082;2022-12-29T11:24:03;4.85;;;1.70;;
54241;SDS011;40156;51.080;17.082;2022-12-29T11:26:33;2.17;;;1.60;;
54241;SDS011;40156;51.080;17.082;2022-12-29T11:31:42;3.25;;;1.50;;
54241;SDS011;40156;51.080;17.082;2022-12-29T11:34:16;4.15;;;1.80;;
54241;SDS011;40156;51.080;17.082;2022-12-29T11:36:44;4.38;;;1.67;;
54241;SDS011;40156;51.080;17.082;2022-12-29T11:40:15;5.80;;;2.08;;
54241;SDS011;40156;51.080;17.082;2022-12-29T11:42:13;3.50;;;2.00;;
54241;SDS011;40156;51.080;17.082;2022-12-29T11:44:43;3.05;;;2.00;;
54241;SDS011;40156;51.080;17.082;2022-12-29T11:47:28;6.10;;;2.28;;
54241;SDS011;40156;51.080;17.082;2022-12-29T11:50:00;4.53;;;2.10;;
54241;SDS011;40156;51.080;17.082;2022-12-29T11:52:29;3.83;;;2.20;;
54241;SDS011;40156;51.080;17.082;2022-12-29T11:54:58;3.58;;;1.92;;
54241;SDS011;40156;51.080;17.082;2022-12-29T11:57:29;2.87;;;1.80;;
54241;SDS011;40156;51.080;17.082;2022-12-29T12:00:01;4.13;;;1.85;;
54241;SDS011;40156;51.080;17.082;2022-12-29T12:05:19;6.53;;;2.33;;
54241;SDS011;40156;51.080;17.082;2022-12-29T12:08:05;2.42;;;1.95;;
54241;SDS011;40156;51.080;17.082;2022-12-29T12:10:42;6.47;;;2.30;;
54241;SDS011;40156;51.080;17.082;2022-12-29T12:13:15;4.20;;;2.38;;
54241;SDS011;40156;51.080;17.082;2022-12-29T12:15:49;6.82;;;2.58;;
54241;SDS011;40156;51.080;17.082;2022-12-29T12:21:21;4.70;;;2.97;;
54241;SDS011;40156;51.080;17.082;2022-12-29T12:26:20;4.45;;;2.72;;
54241;SDS011;40156;51.080;17.082;2022-12-29T12:29:04;4.45;;;2.35;;
54241;SDS011;40156;51.080;17.082;2022-12-29T12:31:40;6.63;;;2.08;;
54241;SDS011;40156;51.080;17.082;2022-12-29T12:34:11;4.05;;;2.30;;
54241;SDS011;40156;51.080;17.082;2022-12-29T12:39:12;7.10;;;3.13;;
54241;SDS011;40156;51.080;17.082;2022-12-29T12:49:30;6.78;;;2.78;;
54241;SDS011;40156;51.080;17.082;2022-12-29T12:54:41;5.15;;;2.65;;
54241;SDS011;40156;51.080;17.082;2022-12-29T12:57:15;6.20;;;2.40;;
54241;SDS011;40156;51.080;17.082;2022-12-29T13:05:17;8.57;;;3.50;;
54241;SDS011;40156;51.080;17.082;2022-12-29T13:10:33;8.30;;;3.55;;
54241;SDS011;40156;51.080;17.082;2022-12-29T13:24:40;6.88;;;3.55;;
54241;SDS011;40156;51.080;17.082;2022-12-29T13:27:51;8.07;;;4.28;;
54241;SDS011;40156;51.080;17.082;2022-12-29T13:30:29;6.78;;;3.47;;
54241;SDS011;40156;51.080;17.082;2022-12-29T13:33:06;3.42;;;1.80;;
54241;SDS011;40156;51.080;17.082;2022-12-29T13:35:59;5.18;;;2.63;;
54241;SDS011;40156;51.080;17.082;2022-12-29T13:41:14;8.60;;;3.40;;
54241;SDS011;40156;51.080;17.082;2022-12-29T13:43:52;7.68;;;3.10;;
54241;SDS011;40156;51.080;17.082;2022-12-29T13:46:27;6.30;;;2.63;;
54241;SDS011;40156;51.080;17.082;2022-12-29T13:48:59;7.63;;;2.63;;
54241;SDS011;40156;51.080;17.082;2022-12-29T13:51:35;5.85;;;2.53;;
54241;SDS011;40156;51.080;17.082;2022-12-29T13:56:38;12.07;;;5.32;;
54241;SDS011;40156;51.080;17.082;2022-12-29T13:59:29;13.00;;;5.15;;
54241;SDS011;40156;51.080;17.082;2022-12-29T14:02:02;8.18;;;4.13;;
54241;SDS011;40156;51.080;17.082;2022-12-29T14:04:31;7.25;;;3.70;;
54241;SDS011;40156;51.080;17.082;2022-12-29T14:12:05;7.35;;;3.90;;
54241;SDS011;40156;51.080;17.082;2022-12-29T14:14:45;6.25;;;3.00;;
54241;SDS011;40156;51.080;17.082;2022-12-29T14:17:16;6.13;;;3.20;;
54241;SDS011;40156;51.080;17.082;2022-12-29T14:19:45;5.93;;;3.67;;
54241;SDS011;40156;51.080;17.082;2022-12-29T14:22:13;7.97;;;3.40;;
54241;SDS011;40156;51.080;17.082;2022-12-29T14:24:56;6.35;;;3.42;;
54241;SDS011;40156;51.080;17.082;2022-12-29T14:29:54;7.03;;;3.70;;
54241;SDS011;40156;51.080;17.082;2022-12-29T14:34:57;7.30;;;4.10;;
54241;SDS011;40156;51.080;17.082;2022-12-29T14:37:26;8.68;;;4.20;;
54241;SDS011;40156;51.080;17.082;2022-12-29T14:42:41;6.95;;;3.97;;
54241;SDS011;40156;51.080;17.082;2022-12-29T14:47:51;8.02;;;3.75;;
54241;SDS011;40156;51.080;17.082;2022-12-29T14:50:23;8.57;;;4.78;;
54241;SDS011;40156;51.080;17.082;2022-12-29T14:52:52;7.13;;;4.47;;
54241;SDS011;40156;51.080;17.082;2022-12-29T14:58:00;8.23;;;4.43;;
54241;SDS011;40156;51.080;17.082;2022-12-29T15:00:32;14.40;;;4.88;;
54241;SDS011;40156;51.080;17.082;2022-12-29T15:08:16;10.02;;;4.60;;
54241;SDS011;40156;51.080;17.082;2022-12-29T15:10:54;9.02;;;4.45;;
54241;SDS011;40156;51.080;17.082;2022-12-29T15:13:25;9.63;;;4.03;;
54241;SDS011;40156;51.080;17.082;2022-12-29T15:15:59;10.18;;;4.40;;
54241;SDS011;40156;51.080;17.082;2022-12-29T15:18:39;8.00;;;4.50;;
54241;SDS011;40156;51.080;17.082;2022-12-29T15:21:06;10.63;;;4.93;;
54241;SDS011;40156;51.080;17.082;2022-12-29T15:30:13;6.50;;;3.85;;
54241;SDS011;40156;51.080;17.082;2022-12-29T15:32:44;12.18;;;4.93;;
54241;SDS011;40156;51.080;17.082;2022-12-29T15:37:49;9.93;;;4.93;;
54241;SDS011;40156;51.080;17.082;2022-12-29T15:40:25;8.85;;;4.78;;
54241;SDS011;40156;51.080;17.082;2022-12-29T15:45:25;12.32;;;5.13;;
54241;SDS011;40156;51.080;17.082;2022-12-29T15:47:58;9.52;;;5.78;;
54241;SDS011;40156;51.080;17.082;2022-12-29T15:50:30;8.68;;;4.85;;
54241;SDS011;40156;51.080;17.082;2022-12-29T15:52:58;12.00;;;5.75;;
54241;SDS011;40156;51.080;17.082;2022-12-29T15:57:57;12.70;;;5.35;;
54241;SDS011;40156;51.080;17.082;2022-12-29T16:00:26;10.15;;;5.32;;
54241;SDS011;40156;51.080;17.082;2022-12-29T16:09:53;13.95;;;5.78;;
54241;SDS011;40156;51.080;17.082;2022-12-29T16:12:21;9.13;;;4.78;;
54241;SDS011;40156;51.080;17.082;2022-12-29T16:15:11;13.88;;;5.70;;
54241;SDS011;40156;51.080;17.082;2022-12-29T16:17:50;13.05;;;5.47;;
54241;SDS011;40156;51.080;17.082;2022-12-29T16:20:19;10.90;;;5.40;;
54241;SDS011;40156;51.080;17.082;2022-12-29T16:22:51;12.73;;;5.38;;
54241;SDS011;40156;51.080;17.082;2022-12-29T16:27:52;11.97;;;5.50;;
54241;SDS011;40156;51.080;17.082;2022-12-29T16:30:28;11.35;;;5.25;;
54241;SDS011;40156;51.080;17.082;2022-12-29T16:33:05;11.27;;;6.10;;
54241;SDS011;40156;51.080;17.082;2022-12-29T16:35:44;10.93;;;5.78;;
54241;SDS011;40156;51.080;17.082;2022-12-29T16:38:18;13.98;;;6.45;;
54241;SDS011;40156;51.080;17.082;2022-12-29T16:40:53;11.27;;;5.45;;
54241;SDS011;40156;51.080;17.082;2022-12-29T16:43:27;8.27;;;5.03;;
54241;SDS011;40156;51.080;17.082;2022-12-29T16:48:26;13.85;;;5.75;;
54241;SDS011;40156;51.080;17.082;2022-12-29T16:51:30;11.85;;;5.78;;
54241;SDS011;40156;51.080;17.082;2022-12-29T16:53:52;11.70;;;5.38;;
54241;SDS011;40156;51.080;17.082;2022-12-29T16:56:21;10.93;;;5.90;;
54241;SDS011;40156;51.080;17.082;2022-12-29T16:58:50;11.68;;;4.93;;
54241;SDS011;40156;51.080;17.082;2022-12-29T17:01:18;10.50;;;5.25;;
54241;SDS011;40156;51.080;17.082;2022-12-29T17:03:47;11.65;;;5.50;;
54241;SDS011;40156;51.080;17.082;2022-12-29T17:06:17;12.88;;;6.10;;
54241;SDS011;40156;51.080;17.082;2022-12-29T17:08:45;13.32;;;6.20;;
54241;SDS011;40156;51.080;17.082;2022-12-29T17:14:17;12.77;;;4.88;;
54241;SDS011;40156;51.080;17.082;2022-12-29T17:16:45;11.55;;;5.55;;
54241;SDS011;40156;51.080;17.082;2022-12-29T17:19:17;9.48;;;5.15;;
54241;SDS011;40156;51.080;17.082;2022-12-29T17:21:45;11.68;;;5.88;;
54241;SDS011;40156;51.080;17.082;2022-12-29T17:24:19;14.73;;;6.20;;
54241;SDS011;40156;51.080;17.082;2022-12-29T17:26:47;13.27;;;5.57;;
54241;SDS011;40156;51.080;17.082;2022-12-29T17:29:20;13.25;;;6.30;;
54241;SDS011;40156;51.080;17.082;2022-12-29T17:31:48;15.32;;;6.70;;
54241;SDS011;40156;51.080;17.082;2022-12-29T17:34:16;14.90;;;6.40;;
54241;SDS011;40156;51.080;17.082;2022-12-29T17:36:44;14.30;;;7.45;;
54241;SDS011;40156;51.080;17.082;2022-12-29T17:39:11;15.13;;;6.35;;
54241;SDS011;40156;51.080;17.082;2022-12-29T17:41:39;12.63;;;6.07;;
54241;SDS011;40156;51.080;17.082;2022-12-29T17:44:08;7.43;;;4.18;;
54241;SDS011;40156;51.080;17.082;2022-12-29T17:46:40;10.68;;;5.18;;
54241;SDS011;40156;51.080;17.082;2022-12-29T17:49:12;11.35;;;5.75;;
54241;SDS011;40156;51.080;17.082;2022-12-29T17:51:40;12.57;;;5.68;;
54241;SDS011;40156;51.080;17.082;2022-12-29T17:54:18;16.30;;;5.90;;
54241;SDS011;40156;51.080;17.082;2022-12-29T17:56:45;10.52;;;5.85;;
54241;SDS011;40156;51.080;17.082;2022-12-29T17:59:13;13.75;;;6.90;;
54241;SDS011;40156;51.080;17.082;2022-12-29T18:01:42;10.25;;;5.38;;